B.b.2 — UBRL7 — position and weather

sailwx.info

Track history (hours):
 
Tides and Currents Weather Stations Pressure Air Temp Water Temp Dewpoint Dewpoint Depression Visibility Wind Speed Wind Dir Waves Ship Positions

B.b.2

Last reported at 2018-Apr-14 06:59 UTC. Time now 2018-Apr-21 02:17 UTC.
Position N 44°40' E 037°39'.

Length 12 m; draft 1.5 m.

Type: Tug. MMSI: 273350030.

Date/timePositionNaut miles runAvg speedWind from/ knotsBaromVisibWave heightAir tempDewpointWater temp
2018-Apr-14 06:59N 44°40' E 037°39'3 5.5
2018-Apr-14 06:30N 44°38' E 037°37'1 2.4
2018-Apr-14 06:00N 44°38' E 037°38'2 0.1
2018-Apr-13 11:10N 44°40' E 037°40'0 1.9
2018-Apr-13 10:59N 44°39' E 037°40'0 0.5
2018-Apr-13 10:29N 44°39' E 037°40'1 0.0
2018-Apr-12 14:14N 44°40' E 037°39'2 5.0
2018-Apr-12 13:52N 44°38' E 037°38'2 0.9
2018-Apr-12 11:19N 44°40' E 037°36'1 0.2
2018-Apr-12 08:13N 44°39' E 037°36'1 2.6
2018-Apr-12 07:42N 44°38' E 037°37'1 4.8
2018-Apr-12 07:30N 44°38' E 037°38'1 1.8
2018-Apr-12 06:56N 44°39' E 037°37'2 3.1
2018-Apr-12 06:27N 44°40' E 037°38'1 0.0
2018-Apr-10 10:37N 44°39' E 037°39'0 0.0
2018-Apr-10 08:24N 44°39' E 037°39'  
2018-Apr-05 18:20N 44°39' E 037°40'2 7.4
2018-Apr-05 18:00N 44°38' E 037°43'4 7.1
2018-Apr-05 17:30N 44°39' E 037°48'0 1.0
2018-Apr-05 17:01N 44°39' E 037°48'4 7.4
2018-Apr-05 16:30N 44°38' E 037°42'4 7.7
2018-Apr-05 16:01N 44°39' E 037°37'2 0.1
2018-Apr-04 13:24N 44°40' E 037°39'3 3.5
2018-Apr-04 12:38N 44°38' E 037°37'0 0.1
2018-Apr-04 12:01N 44°38' E 037°37'0 7.0
2018-Apr-04 12:01N 44°38' E 037°37'2 4.0
2018-Apr-04 11:29N 44°37' E 037°40'  
Track history (hours):
 
Tides and Currents Weather Stations Pressure Air Temp Water Temp Dewpoint Dewpoint Depression Visibility Wind Speed Wind Dir Waves Ship Positions

B.b.2

Last reported at 2018-Apr-14 06:59 UTC. Time now 2018-Apr-21 02:17 UTC.
Position N 44°40' E 037°39'.

Length 12 m; draft 1.5 m.

Type: Tug. MMSI: 273350030.

Date/timePositionNaut miles runAvg speedWind from/ knotsBaromVisibWave heightAir tempDewpointWater temp
2018-Apr-14 06:59N 44°40' E 037°39'3 5.5
2018-Apr-14 06:30N 44°38' E 037°37'1 2.4
2018-Apr-14 06:00N 44°38' E 037°38'2 0.1
2018-Apr-13 11:10N 44°40' E 037°40'0 1.9
2018-Apr-13 10:59N 44°39' E 037°40'0 0.5
2018-Apr-13 10:29N 44°39' E 037°40'1 0.0
2018-Apr-12 14:14N 44°40' E 037°39'2 5.0
2018-Apr-12 13:52N 44°38' E 037°38'2 0.9
2018-Apr-12 11:19N 44°40' E 037°36'1 0.2
2018-Apr-12 08:13N 44°39' E 037°36'1 2.6
2018-Apr-12 07:42N 44°38' E 037°37'1 4.8
2018-Apr-12 07:30N 44°38' E 037°38'1 1.8
2018-Apr-12 06:56N 44°39' E 037°37'2 3.1
2018-Apr-12 06:27N 44°40' E 037°38'1 0.0
2018-Apr-10 10:37N 44°39' E 037°39'0 0.0
2018-Apr-10 08:24N 44°39' E 037°39'  
2018-Apr-05 18:20N 44°39' E 037°40'2 7.4
2018-Apr-05 18:00N 44°38' E 037°43'4 7.1
2018-Apr-05 17:30N 44°39' E 037°48'0 1.0
2018-Apr-05 17:01N 44°39' E 037°48'4 7.4
2018-Apr-05 16:30N 44°38' E 037°42'4 7.7
2018-Apr-05 16:01N 44°39' E 037°37'2 0.1
2018-Apr-04 13:24N 44°40' E 037°39'3 3.5
2018-Apr-04 12:38N 44°38' E 037°37'0 0.1
2018-Apr-04 12:01N 44°38' E 037°37'0 7.0
2018-Apr-04 12:01N 44°38' E 037°37'2 4.0
2018-Apr-04 11:29N 44°37' E 037°40'  

Dump ship's entire track history